createdAt,value
2023-04-01T00:06:00.757Z,9.517915839255853
2023-04-01T00:13:53.410Z,9.644609636287624
2023-04-01T00:20:12.159Z,9.590301003344482
2023-04-01T00:26:31.228Z,9.587198866011706
2023-04-01T00:32:50.390Z,9.543196723453176
2023-04-01T00:39:09.623Z,9.514652356814382
2023-04-01T00:45:29.399Z,9.514704614339465
2023-04-01T00:51:48.006Z,9.525395850752508
2023-04-01T00:58:07.531Z,9.547575250836122
2023-04-01T01:05:48.904Z,9.592567673494983
2023-04-01T01:12:09.297Z,9.588278637123745
2023-04-01T01:18:28.341Z,9.607730847617058
2023-04-01T01:24:47.479Z,9.609721859322743
2023-04-01T01:44:24.884Z,9.58425742056856
2023-04-01T01:50:43.922Z,9.567027461329433
2023-04-01T01:57:04.013Z,9.608655152591973
2023-04-01T02:03:23.947Z,9.58825185514214
2023-04-01T02:09:43.273Z,9.574884380225754
2023-04-01T02:18:52.151Z,9.509045777591973
2023-04-01T02:31:00.776Z,9.565610629180604
2023-04-01T02:37:19.805Z,9.591226614757526
2023-04-01T02:48:45.255Z,9.565176238503344
2023-04-01T02:55:03.991Z,9.586769701086956
2023-04-01T03:01:22.861Z,9.569269962374582
2023-04-01T03:07:42.485Z,9.497113424958195
2023-04-01T03:16:46.471Z,9.531930654264213
2023-04-01T03:23:06.382Z,9.533709369774247
2023-04-01T03:29:25.695Z,9.586354906981605
2023-04-01T03:47:09.637Z,9.530756819607024
2023-04-01T03:53:28.459Z,9.448620401337791
2023-04-01T03:59:47.745Z,9.441283444816053
2023-04-01T04:06:06.984Z,9.41955541910535
2023-04-01T04:12:26.314Z,9.451039924749164
2023-04-01T04:18:46.231Z,9.43122060514214
2023-04-01T04:25:07.717Z,9.375446801839464
2023-04-01T04:31:26.797Z,9.389918216973244
2023-04-01T04:37:46.072Z,9.428559390677258
2023-04-01T04:48:28.707Z,9.410072637959868
2023-04-01T04:54:48.388Z,9.44209539611204
2023-04-01T05:01:08.067Z,9.494023045568563
2023-04-01T05:16:47.039Z,9.493096127717392
2023-04-01T05:23:06.105Z,9.564752299331104
2023-04-01T05:33:21.366Z,9.502333298494984
2023-04-01T05:39:43.415Z,9.58974968645485
2023-04-01T05:46:05.373Z,9.59931281354515
2023-04-01T05:52:26.518Z,9.651352163461539
2023-04-01T05:58:47.955Z,9.694446984740802
2023-04-01T06:12:15.017Z,9.745090405518393
2023-04-01T06:18:37.430Z,9.805704562081939
2023-04-01T06:25:51.858Z,9.784871446488296
2023-04-01T06:32:13.520Z,9.786661266722408
2023-04-01T06:40:59.172Z,9.850322690217391
2023-04-01T06:47:20.757Z,9.943034725125418
2023-04-01T06:53:42.099Z,10.03301303825251
2023-04-01T07:00:04.216Z,10.066134510869567
2023-04-01T07:06:26.245Z,10.031880356396321
2023-04-01T07:12:47.986Z,10.086616847826088
2023-04-01T07:23:03.942Z,10.20150175062709
2023-04-01T07:29:25.947Z,10.166016278219065
2023-04-01T07:35:47.590Z,10.198884301839465
2023-04-01T07:42:09.528Z,10.299342208403012
2023-04-01T07:48:53.131Z,10.337025762959865
2023-04-01T07:55:15.246Z,10.43260608277592
2023-04-01T08:01:36.541Z,10.730361622073579
2023-04-01T08:10:05.387Z,10.715457122700668
2023-04-01T08:29:16.912Z,11.056523045568563
2023-04-01T08:40:46.900Z,11.36706796091137
2023-04-01T08:47:08.499Z,11.43695456208194
2023-04-01T08:53:33.519Z,11.585970814172242
2023-04-01T08:59:54.930Z,11.555007577341136
2023-04-01T09:10:10.332Z,11.189811089046822
2023-04-01T09:16:32.046Z,11.357479358277592
2023-04-01T09:22:53.052Z,11.757007734113712
2023-04-01T09:30:39.959Z,12.080667328595318
2023-04-01T09:37:01.489Z,12.22073839882943
2023-04-01T09:43:23.517Z,12.332999973871239
2023-04-01T09:49:45.655Z,12.474770066889631
2023-04-01T09:56:07.630Z,12.815704692725753
2023-04-01T10:02:29.882Z,12.754738451086956
2023-04-01T10:12:33.098Z,12.19854266826923
2023-04-01T10:18:56.027Z,12.094699127299332
2023-04-01T10:25:19.017Z,11.307809887123748
2023-04-01T10:31:41.197Z,10.730355743102006
2023-04-01T10:38:03.278Z,10.680315243520068
2023-04-01T10:47:43.917Z,10.340688362249164
2023-04-01T10:54:06.883Z,10.258244277801005
2023-04-01T11:00:29.281Z,10.43451348244147
2023-04-01T11:06:51.385Z,10.890469533862875
2023-04-01T11:13:13.945Z,10.844120375209032
2023-04-01T11:19:35.507Z,10.960098766722409
2023-04-01T11:25:57.832Z,10.576364574623746
2023-04-01T11:32:19.675Z,10.360103992474917
2023-04-01T11:38:41.793Z,10.19766735472408
2023-04-01T11:45:03.306Z,9.955346598035117
2023-04-01T11:58:46.389Z,9.981917589882944
2023-04-01T12:05:08.494Z,10.26874477424749
2023-04-01T12:11:29.990Z,10.336684129389633
2023-04-01T12:17:52.178Z,10.385515520484951
2023-04-01T12:24:14.461Z,10.517864234949833
2023-04-01T12:35:14.016Z,10.115832723662209
2023-04-01T12:41:36.456Z,10.125990933319398
2023-04-01T12:47:58.534Z,10.014101693143811
2023-04-01T12:58:42.222Z,9.884379572533446
2023-04-01T13:05:03.671Z,9.811942150919734
2023-04-01T13:11:25.288Z,9.863189799331103
2023-04-01T13:17:46.969Z,9.711214464882943
2023-04-01T13:24:08.577Z,9.77488960597826
2023-04-01T13:30:30.492Z,9.911126933528429
2023-04-01T13:40:42.791Z,9.374586512332776
2023-04-01T13:47:06.740Z,9.243864966555185
2023-04-01T13:53:27.811Z,9.17673756270903
2023-04-01T13:59:49.653Z,8.992789114757525
2023-04-01T14:07:05.148Z,8.869170673076924
2023-04-01T14:13:27.658Z,8.917985080476589
2023-04-01T14:19:50.182Z,8.820968985158864
2023-04-01T14:26:12.283Z,8.691146922031773
2023-04-01T14:32:35.101Z,8.56298076923077
2023-04-01T14:39:02.064Z,8.681181411998326
2023-04-01T14:45:23.923Z,8.546048677884615
2023-04-01T14:51:48.328Z,8.323894100125418
2023-04-01T14:58:11.578Z,8.51083102529264
2023-04-01T15:04:34.627Z,8.39443718645485
2023-04-01T15:10:57.785Z,8.261166779891305
2023-04-01T15:17:20.372Z,8.10597891408863
2023-04-01T15:23:43.792Z,8.159273751045152
2023-04-01T15:34:18.400Z,8.091843906772576
2023-04-01T15:40:40.910Z,8.006233016304348
2023-04-01T15:52:16.759Z,7.787344533862877
2023-04-01T15:58:38.270Z,7.780733303720735
2023-04-01T16:04:59.627Z,7.678098218018395
2023-04-01T16:19:46.753Z,7.424402304556856
2023-04-01T16:28:02.076Z,7.353413069607022
2023-04-01T16:38:27.552Z,7.22695704431438
2023-04-01T16:44:49.653Z,7.233367082984951
2023-04-01T16:51:13.984Z,7.316653820025083
2023-04-01T16:57:36.508Z,7.16299187395485
2023-04-01T17:10:09.125Z,6.9829679661371244
2023-04-01T17:16:31.015Z,6.917390651128763
2023-04-01T17:32:03.839Z,6.924001228051839
2023-04-01T17:38:22.713Z,6.756325120192307
2023-04-01T17:44:42.462Z,6.690174278846153
2023-04-01T17:51:29.301Z,6.574911815426422
2023-04-01T17:57:48.072Z,6.641007133152174
2023-04-01T18:04:09.623Z,6.662564668687291
2023-04-01T18:10:29.292Z,6.552439119983278
2023-04-01T18:19:55.915Z,6.505206155936455
2023-04-01T18:26:15.751Z,6.3659150292642135
2023-04-01T18:32:35.406Z,6.243948578595318
2023-04-01T18:50:01.937Z,6.205928616220736
2023-04-01T19:01:55.425Z,6.366879833821071
2023-04-01T19:15:06.536Z,6.037030988712375
2023-04-01T19:21:25.653Z,6.108795594690636
2023-04-01T19:27:44.430Z,6.098869277801003
2023-04-01T19:39:44.480Z,5.759674174331104
2023-04-01T19:46:03.478Z,5.727991743311036
2023-04-01T19:52:24.605Z,5.72419850020903
2023-04-01T20:00:56.266Z,5.736618154264214
2023-04-01T20:07:15.483Z,5.775975256061873
2023-04-01T20:18:35.295Z,5.6917602947324415
2023-04-01T20:24:53.994Z,5.689335545568562
2023-04-01T20:31:12.462Z,5.626175141095317
2023-04-01T20:37:31.381Z,5.675862902382943
2023-04-01T20:43:50.306Z,5.614658235785954
2023-04-01T20:56:12.668Z,5.589429609113713
2023-04-01T21:02:34.005Z,5.527092913879599
2023-04-01T21:20:14.293Z,5.5512195599916385
2023-04-01T21:26:35.417Z,5.338920098244148
2023-04-01T21:32:54.012Z,5.409367161371238
2023-04-01T21:39:13.057Z,5.215451243729097
2023-04-01T21:45:31.535Z,5.172482493729097
2023-04-01T21:51:51.286Z,4.91719664506689
2023-04-01T22:00:14.728Z,4.913140807901337
2023-04-01T22:06:34.547Z,4.717657164506688
2023-04-01T22:13:52.454Z,4.717830920777592
2023-04-01T22:20:35.769Z,4.559676133988295
2023-04-01T22:26:55.334Z,4.241137776964883
2023-04-01T22:33:15.197Z,4.110202628553512
2023-04-01T22:39:34.462Z,3.9625424592391303
2023-04-01T22:45:57.205Z,3.845307927466555
2023-04-01T22:52:16.485Z,3.8388933162625416
2023-04-01T22:59:37.453Z,3.7647823474080266
2023-04-01T23:05:56.392Z,3.6508504912207353
2023-04-01T23:12:14.848Z,3.6023542015050163
2023-04-01T23:18:33.856Z,3.495499973871237
2023-04-01T23:27:53.770Z,3.467915186036789
2023-04-01T23:34:12.481Z,3.428022444607023
2023-04-01T23:42:31.548Z,3.3556248693561876
2023-04-01T23:48:50.080Z,3.288394910117057
2023-04-01T23:57:05.692Z,3.2397085336538463
